Time;durP1;ratioP1;P1;durP2;ratioP2;P2;SDS_P1;SDS_P2;PMS_P1;PMS_P2;Temp;Humidity;BMP_temperature;BMP_pressure;BME280_temperature;BME280_humidity;BME280_pressure;Samples;Min_cycle;Max_cycle;Signal;HPM_P1;HPM_P2
2022/12/30 00:01:28;;;;;;;9.23;3.07;;;8.60;99.90;;;;;;5067925;28;20226;-89
2022/12/30 00:03:55;;;;;;;9.23;2.83;;;8.60;99.90;;;;;;5066721;28;20233;-89
2022/12/30 00:06:23;;;;;;;13.10;2.83;;;8.60;99.90;;;;;;5072170;28;20261;-89
2022/12/30 00:08:52;;;;;;;7.40;2.77;;;8.60;99.90;;;;;;5073194;28;20226;-89
2022/12/30 00:11:21;;;;;;;9.93;2.53;;;8.60;99.90;;;;;;5067865;28;20785;-89
2022/12/30 00:33:32;;;;;;;11.70;3.20;;;8.50;99.90;;;;;;5070663;28;20209;-89
2022/12/30 00:36:00;;;;;;;6.33;2.50;;;8.50;99.90;;;;;;5068716;28;20194;-89
2022/12/30 00:38:27;;;;;;;11.93;3.00;;;8.50;99.90;;;;;;5070434;28;20214;-88
2022/12/30 00:43:38;;;;;;;11.57;3.13;;;8.50;99.90;;;;;;5071578;28;20260;-89
2022/12/30 00:46:05;;;;;;;9.07;2.73;;;8.40;99.90;;;;;;5071067;28;20198;-89
2022/12/30 00:56:47;;;;;;;8.73;2.80;;;8.50;99.90;;;;;;5065889;28;20582;-89
2022/12/30 00:59:14;;;;;;;8.30;2.90;;;8.50;99.90;;;;;;5071814;28;20222;-87
2022/12/30 01:01:41;;;;;;;6.77;2.50;;;8.50;99.90;;;;;;5071176;28;20201;-90
2022/12/30 01:04:09;;;;;;;12.93;3.10;;;8.50;99.90;;;;;;5067846;28;20209;-89
2022/12/30 01:06:38;;;;;;;13.23;3.97;;;8.40;99.90;;;;;;5065363;28;20206;-88
2022/12/30 01:09:05;;;;;;;12.07;3.10;;;8.40;99.90;;;;;;5068860;28;20203;-88
2022/12/30 01:11:31;;;;;;;9.73;2.87;;;8.20;99.90;;;;;;5063874;28;20687;-89
2022/12/30 01:13:58;;;;;;;13.23;3.50;;;8.30;99.90;;;;;;5068203;28;20216;-89
2022/12/30 01:16:25;;;;;;;13.87;3.60;;;8.40;99.90;;;;;;5071167;28;20209;-89
2022/12/30 01:18:52;;;;;;;9.40;2.87;;;8.30;99.90;;;;;;5065890;28;20242;-89
2022/12/30 01:21:20;;;;;;;9.70;2.97;;;8.30;99.90;;;;;;5066950;28;20309;-88
2022/12/30 01:23:47;;;;;;;8.60;2.90;;;8.30;99.90;;;;;;5068223;28;20290;-89
2022/12/30 01:26:14;;;;;;;9.87;2.83;;;8.40;99.90;;;;;;5065720;28;20209;-90
2022/12/30 01:28:41;;;;;;;7.53;2.70;;;8.40;99.90;;;;;;5066853;28;20202;-89
2022/12/30 01:31:11;;;;;;;14.13;3.47;;;8.30;99.90;;;;;;5068514;28;20312;-88
2022/12/30 01:33:38;;;;;;;10.07;3.53;;;8.20;99.90;;;;;;5065717;28;20210;-89
2022/12/30 01:36:06;;;;;;;9.87;3.53;;;8.30;99.90;;;;;;5068793;28;20228;-88
2022/12/30 01:38:35;;;;;;;8.03;2.70;;;8.30;99.90;;;;;;5070469;28;20224;-89
2022/12/30 01:41:02;;;;;;;7.67;3.07;;;8.30;99.90;;;;;;5070746;28;20656;-89
2022/12/30 01:43:44;;;;;;;9.63;2.90;;;8.30;99.90;;;;;;5071619;28;20209;-89
2022/12/30 01:46:17;;;;;;;14.23;3.00;;;8.30;99.90;;;;;;5077755;28;20182;-90
2022/12/30 01:48:44;;;;;;;6.00;2.83;;;8.50;99.90;;;;;;5083349;28;20485;-90
2022/12/30 01:51:15;;;;;;;15.00;4.00;;;8.30;99.90;;;;;;5080772;28;20297;-89
2022/12/30 01:53:47;;;;;;;9.93;3.10;;;8.20;99.90;;;;;;5081374;28;20217;-89
2022/12/30 01:56:17;;;;;;;11.00;2.90;;;8.30;99.90;;;;;;5082532;28;20209;-89
2022/12/30 01:58:48;;;;;;;9.30;3.13;;;8.40;99.90;;;;;;5077399;28;20240;-88
2022/12/30 02:01:15;;;;;;;11.57;3.10;;;8.40;99.90;;;;;;5076668;28;20226;-89
2022/12/30 02:03:45;;;;;;;13.00;3.47;;;8.40;99.90;;;;;;5072766;28;20210;-89
2022/12/30 02:06:15;;;;;;;11.63;3.43;;;8.30;99.90;;;;;;5074243;28;20207;-90
2022/12/30 02:08:43;;;;;;;9.40;4.03;;;8.30;99.90;;;;;;5071897;28;20214;-89
2022/12/30 02:11:10;;;;;;;13.47;3.63;;;8.30;99.90;;;;;;5071693;28;20222;-89
2022/12/30 02:13:36;;;;;;;10.93;2.83;;;8.30;99.90;;;;;;5074056;28;20214;-89
2022/12/30 02:16:36;;;;;;;8.83;3.20;;;8.30;99.90;;;;;;5070508;28;20205;-89
2022/12/30 02:19:36;;;;;;;11.90;3.47;;;8.20;99.90;;;;;;5080177;28;20234;-87
2022/12/30 02:22:10;;;;;;;3.97;2.70;;;8.20;99.90;;;;;;5069781;28;20202;-90
2022/12/30 02:25:05;;;;;;;10.93;3.60;;;8.20;99.90;;;;;;5067052;28;20216;-89
2022/12/30 02:28:09;;;;;;;11.97;3.33;;;8.20;99.90;;;;;;5066015;28;20286;-89
2022/12/30 02:30:55;;;;;;;9.47;3.20;;;8.20;99.90;;;;;;5065921;28;20257;-89
2022/12/30 02:33:27;;;;;;;9.40;3.47;;;8.20;99.90;;;;;;5070029;28;20205;-89
2022/12/30 02:36:01;;;;;;;7.30;3.30;;;8.20;99.90;;;;;;5078539;28;20198;-88
2022/12/30 02:38:38;;;;;;;9.93;3.97;;;8.20;99.90;;;;;;5083014;28;20287;-89
2022/12/30 02:46:54;;;;;;;12.77;3.60;;;8.10;99.90;;;;;;5079288;28;20218;-89
2022/12/30 02:49:24;;;;;;;12.97;3.77;;;8.20;99.90;;;;;;5072234;28;20203;-89
2022/12/30 02:54:36;;;;;;;12.33;3.17;;;8.20;99.90;;;;;;5082962;28;20286;-89
2022/12/30 02:57:22;;;;;;;9.30;3.00;;;8.00;99.90;;;;;;5072889;28;20674;-88
2022/12/30 03:05:38;;;;;;;10.50;3.13;;;8.00;99.90;;;;;;5067411;28;20210;-89
2022/12/30 03:08:14;;;;;;;7.40;2.90;;;7.90;99.90;;;;;;5073281;28;20240;-90
2022/12/30 03:13:36;;;;;;;13.53;4.03;;;8.00;99.90;;;;;;5070996;28;20206;-89
2022/12/30 03:16:11;;;;;;;12.70;3.43;;;7.90;99.90;;;;;;5066867;28;20561;-89
2022/12/30 03:18:40;;;;;;;14.83;3.40;;;7.90;99.90;;;;;;5073292;28;20227;-89
2022/12/30 03:21:10;;;;;;;9.27;3.33;;;8.00;99.90;;;;;;5070183;28;20227;-89
2022/12/30 03:29:17;;;;;;;10.70;3.20;;;7.80;99.90;;;;;;5070753;28;20630;-89
2022/12/30 03:31:44;;;;;;;11.67;3.23;;;7.80;99.90;;;;;;5072487;28;20686;-89
2022/12/30 03:34:12;;;;;;;9.23;3.10;;;7.70;99.90;;;;;;5069172;28;20211;-89
2022/12/30 03:36:44;;;;;;;7.47;2.90;;;7.70;99.90;;;;;;5073479;28;20218;-89
2022/12/30 03:39:15;;;;;;;8.50;3.43;;;7.70;99.90;;;;;;5079282;28;20229;-89
2022/12/30 03:41:44;;;;;;;13.87;3.10;;;7.70;99.90;;;;;;5075162;28;20285;-90
2022/12/30 03:44:12;;;;;;;17.00;3.50;;;7.60;99.90;;;;;;5069801;28;20285;-90
2022/12/30 03:46:42;;;;;;;10.70;3.27;;;7.70;99.90;;;;;;5071479;28;20212;-90
2022/12/30 03:49:09;;;;;;;10.93;3.30;;;7.50;99.90;;;;;;5072799;28;20208;-91
2022/12/30 03:51:37;;;;;;;12.97;3.50;;;7.50;99.90;;;;;;5067849;28;20218;-91
2022/12/30 03:54:04;;;;;;;8.87;3.00;;;7.50;99.90;;;;;;5071775;28;20202;-89
2022/12/30 03:56:31;;;;;;;9.47;3.20;;;7.60;99.90;;;;;;5073769;28;20206;-90
2022/12/30 03:58:58;;;;;;;8.30;2.60;;;7.60;99.90;;;;;;5066272;28;20226;-91
2022/12/30 04:01:25;;;;;;;10.37;3.30;;;7.60;99.90;;;;;;5068477;28;20602;-89
2022/12/30 04:03:52;;;;;;;10.60;3.50;;;7.70;99.90;;;;;;5068714;28;20286;-91
2022/12/30 04:06:18;;;;;;;10.33;3.37;;;7.70;99.90;;;;;;5068324;28;20571;-89
2022/12/30 04:08:47;;;;;;;10.67;3.20;;;7.60;99.90;;;;;;5067539;28;20566;-89
2022/12/30 04:11:14;;;;;;;6.67;3.27;;;7.60;99.90;;;;;;5068731;28;20222;-89
2022/12/30 04:13:41;;;;;;;9.30;3.07;;;7.60;99.90;;;;;;5072546;28;20207;-90
2022/12/30 04:16:08;;;;;;;9.93;3.00;;;7.60;99.90;;;;;;5070221;28;20580;-89
2022/12/30 04:18:35;;;;;;;11.63;2.87;;;7.60;99.90;;;;;;5073069;28;20213;-89
2022/12/30 04:21:02;;;;;;;12.17;3.60;;;7.80;99.90;;;;;;5071751;28;20230;-89
2022/12/30 04:23:29;;;;;;;7.23;2.73;;;7.70;99.90;;;;;;5068812;28;20210;-89
2022/12/30 04:25:57;;;;;;;11.50;3.03;;;7.60;99.90;;;;;;5074499;28;20210;-88
2022/12/30 04:28:24;;;;;;;9.07;3.27;;;7.70;99.90;;;;;;5067101;28;20210;-89
2022/12/30 04:30:51;;;;;;;14.23;3.33;;;7.70;99.90;;;;;;5068435;28;20226;-90
2022/12/30 04:33:18;;;;;;;11.10;3.10;;;7.70;99.90;;;;;;5066766;28;20224;-89
2022/12/30 04:35:45;;;;;;;15.27;4.53;;;7.60;99.90;;;;;;5066163;28;20213;-92
2022/12/30 04:38:11;;;;;;;13.03;3.27;;;7.80;99.90;;;;;;5065680;28;20210;-89
2022/12/30 04:40:38;;;;;;;9.33;2.80;;;7.70;99.90;;;;;;5067360;28;20222;-88
2022/12/30 04:43:06;;;;;;;12.67;3.10;;;7.60;99.90;;;;;;5068409;28;20205;-89
2022/12/30 04:45:33;;;;;;;11.03;3.50;;;7.50;99.90;;;;;;5070006;28;20288;-89
2022/12/30 04:48:00;;;;;;;9.23;2.70;;;7.40;99.90;;;;;;5067563;28;20692;-91
2022/12/30 04:50:27;;;;;;;11.63;3.27;;;7.50;99.90;;;;;;5070301;28;20222;-88
2022/12/30 04:52:54;;;;;;;14.57;3.53;;;7.50;99.90;;;;;;5069859;28;20580;-89
2022/12/30 04:55:21;;;;;;;9.90;3.43;;;7.50;99.90;;;;;;5067631;28;20221;-90
2022/12/30 04:57:48;;;;;;;13.37;3.10;;;7.50;99.90;;;;;;5067649;28;20206;-89
2022/12/30 05:00:16;;;;;;;13.80;4.10;;;7.50;99.90;;;;;;5063906;28;20230;-89
2022/12/30 05:02:43;;;;;;;10.57;3.20;;;7.60;99.90;;;;;;5062651;28;20673;-89
2022/12/30 05:05:10;;;;;;;9.93;3.00;;;7.50;99.90;;;;;;5063327;28;20238;-88
2022/12/30 05:07:37;;;;;;;9.23;3.37;;;7.40;99.90;;;;;;5065060;28;20214;-89
2022/12/30 05:10:04;;;;;;;12.90;3.83;;;7.40;99.90;;;;;;5065616;28;20694;-89
2022/12/30 05:12:31;;;;;;;8.97;3.33;;;7.40;99.90;;;;;;5066024;28;20206;-88
2022/12/30 05:14:58;;;;;;;10.20;3.40;;;7.40;99.90;;;;;;5065260;28;20264;-89
2022/12/30 05:17:26;;;;;;;12.70;3.40;;;7.30;99.90;;;;;;5065442;28;20695;-89
2022/12/30 05:19:53;;;;;;;10.93;2.93;;;7.40;99.90;;;;;;5069311;28;20250;-89
2022/12/30 05:22:20;;;;;;;10.43;3.53;;;7.30;99.90;;;;;;5077980;28;20665;-89
2022/12/30 05:27:32;;;;;;;13.50;3.73;;;7.50;99.90;;;;;;5079609;28;20284;-89
2022/12/30 05:29:58;;;;;;;12.70;4.13;;;7.50;99.90;;;;;;5072629;28;20222;-90
2022/12/30 05:32:27;;;;;;;10.80;3.23;;;7.40;99.90;;;;;;5069644;28;20210;-90
2022/12/30 05:34:54;;;;;;;8.83;3.30;;;7.40;99.90;;;;;;5071604;28;20297;-88
2022/12/30 05:37:21;;;;;;;8.63;3.10;;;7.40;99.90;;;;;;5071434;28;20232;-89
2022/12/30 05:39:48;;;;;;;11.00;2.47;;;7.40;99.90;;;;;;5071697;28;20298;-90
2022/12/30 05:42:15;;;;;;;11.40;2.70;;;7.60;99.90;;;;;;5075066;28;20206;-90
2022/12/30 05:44:42;;;;;;;9.70;3.73;;;7.50;99.90;;;;;;5073086;28;20281;-89
2022/12/30 05:47:11;;;;;;;14.60;2.83;;;7.50;99.90;;;;;;5074125;28;20726;-90
2022/12/30 05:49:40;;;;;;;17.83;3.00;;;7.50;99.90;;;;;;5075888;28;20226;-89
2022/12/30 05:52:06;;;;;;;12.57;2.53;;;7.60;99.90;;;;;;5078654;28;20198;-89
2022/12/30 05:54:33;;;;;;;7.43;2.73;;;7.80;99.90;;;;;;5072378;28;20213;-90
2022/12/30 05:57:00;;;;;;;12.40;2.90;;;7.90;99.90;;;;;;5073566;28;20317;-89
2022/12/30 05:59:29;;;;;;;11.63;2.70;;;7.80;99.90;;;;;;5078933;28;20233;-89
2022/12/30 06:01:58;;;;;;;15.00;2.97;;;7.70;99.90;;;;;;5072339;28;20203;-90
2022/12/30 06:04:25;;;;;;;11.23;3.00;;;7.50;99.90;;;;;;5075401;28;20206;-88
2022/12/30 06:06:54;;;;;;;11.13;2.70;;;7.40;99.90;;;;;;5068597;28;20198;-89
2022/12/30 06:09:21;;;;;;;6.07;2.53;;;7.40;99.90;;;;;;5067517;28;20217;-89
2022/12/30 06:11:48;;;;;;;8.30;2.80;;;7.20;99.90;;;;;;5076584;28;20211;-87
2022/12/30 06:14:17;;;;;;;9.33;2.60;;;7.20;99.90;;;;;;5070908;28;20214;-89
2022/12/30 06:16:47;;;;;;;7.93;2.60;;;7.20;99.90;;;;;;5072264;28;20706;-89
2022/12/30 06:19:14;;;;;;;13.50;3.83;;;7.10;99.90;;;;;;5071091;28;20209;-88
2022/12/30 06:24:42;;;;;;;7.27;2.40;;;6.80;99.90;;;;;;5036421;28;20289;-89
2022/12/30 06:27:09;;;;;;;11.50;2.80;;;6.80;99.90;;;;;;5077414;28;20206;-89
2022/12/30 06:29:36;;;;;;;10.67;2.90;;;6.80;99.90;;;;;;5075553;28;20704;-89
2022/12/30 06:32:03;;;;;;;9.67;2.43;;;6.50;99.90;;;;;;5072570;28;20216;-88
2022/12/30 06:34:30;;;;;;;10.30;2.93;;;6.60;99.90;;;;;;5080706;28;20194;-89
2022/12/30 06:36:57;;;;;;;6.50;2.33;;;6.50;99.90;;;;;;5072050;28;20237;-89
2022/12/30 06:39:24;;;;;;;9.47;2.40;;;6.60;99.90;;;;;;5076110;28;20213;-91
2022/12/30 06:41:52;;;;;;;11.63;2.13;;;6.40;99.90;;;;;;5076886;28;20198;-89
2022/12/30 06:44:19;;;;;;;13.13;2.53;;;6.40;99.90;;;;;;5074608;28;20203;-89
2022/12/30 06:46:46;;;;;;;12.90;3.03;;;6.70;99.90;;;;;;5070974;28;20607;-87
2022/12/30 06:49:13;;;;;;;13.10;2.77;;;6.70;99.90;;;;;;5065523;28;20202;-88
2022/12/30 06:51:39;;;;;;;11.97;2.17;;;6.50;99.90;;;;;;5061433;28;20222;-86
2022/12/30 06:54:06;;;;;;;8.80;2.23;;;6.50;99.90;;;;;;5073621;28;20654;-90
2022/12/30 06:56:33;;;;;;;5.60;2.37;;;6.40;99.90;;;;;;5071800;28;20587;-88
2022/12/30 06:59:01;;;;;;;10.27;3.00;;;6.30;99.90;;;;;;5072179;28;20210;-87
2022/12/30 07:01:28;;;;;;;8.90;2.60;;;6.50;99.90;;;;;;5070038;28;20613;-87
2022/12/30 07:03:55;;;;;;;7.27;1.80;;;6.30;99.90;;;;;;5068904;28;20203;-88
2022/12/30 07:06:21;;;;;;;12.47;2.60;;;6.50;99.90;;;;;;5073479;28;20206;-87
2022/12/30 07:08:48;;;;;;;13.27;2.67;;;6.50;99.90;;;;;;5067560;28;20202;-87
2022/12/30 07:11:15;;;;;;;12.73;2.67;;;6.70;99.90;;;;;;5073236;28;20728;-89
2022/12/30 07:13:42;;;;;;;8.97;2.17;;;6.50;99.90;;;;;;5073885;28;20228;-88
2022/12/30 07:16:10;;;;;;;5.77;1.90;;;6.50;99.90;;;;;;5075685;28;20199;-87
2022/12/30 07:18:37;;;;;;;10.50;2.07;;;6.60;99.90;;;;;;5080007;28;20587;-88
2022/12/30 07:21:34;;;;;;;6.33;1.70;;;6.70;99.90;;;;;;5074835;28;20313;-87
2022/12/30 07:24:00;;;;;;;8.43;2.13;;;6.60;99.90;;;;;;5078104;28;20194;-91
2022/12/30 07:26:27;;;;;;;10.20;2.17;;;6.60;99.90;;;;;;5064961;28;20211;-87
2022/12/30 07:28:55;;;;;;;8.87;2.23;;;6.60;99.90;;;;;;5072423;28;20201;-88
2022/12/30 07:31:23;;;;;;;10.00;1.70;;;6.70;99.90;;;;;;5074909;28;20234;-89
2022/12/30 07:33:53;;;;;;;5.93;1.90;;;6.60;99.90;;;;;;5074317;28;20198;-88
2022/12/30 07:36:20;;;;;;;10.27;2.13;;;6.60;99.90;;;;;;5075369;28;20208;-89
2022/12/30 07:38:46;;;;;;;7.37;1.70;;;6.60;99.90;;;;;;5074656;28;20293;-89
2022/12/30 07:41:13;;;;;;;7.10;1.90;;;6.70;99.90;;;;;;5074789;28;20234;-89
2022/12/30 07:43:40;;;;;;;7.27;2.07;;;6.70;99.90;;;;;;5075274;28;20200;-89
2022/12/30 07:46:08;;;;;;;11.70;1.97;;;6.60;99.90;;;;;;5076335;28;20206;-88
2022/12/30 07:48:37;;;;;;;8.17;1.90;;;6.70;99.90;;;;;;5075347;28;20198;-90
2022/12/30 07:51:07;;;;;;;10.63;2.10;;;6.70;99.90;;;;;;5058484;28;20211;-90
2022/12/30 07:53:34;;;;;;;5.97;1.90;;;6.70;99.90;;;;;;5066120;28;20685;-90
2022/12/30 07:56:05;;;;;;;8.23;3.50;;;6.70;99.90;;;;;;5074593;28;20829;-89
2022/12/30 07:58:32;;;;;;;12.07;2.10;;;6.70;99.90;;;;;;5074999;28;20232;-91
2022/12/30 08:00:59;;;;;;;8.60;1.93;;;6.60;99.90;;;;;;5073857;28;20225;-90
2022/12/30 08:03:26;;;;;;;7.37;2.63;;;6.50;99.90;;;;;;5074787;28;20203;-90
2022/12/30 08:05:54;;;;;;;5.73;1.67;;;6.70;99.90;;;;;;5075222;28;20202;-89
2022/12/30 08:08:21;;;;;;;12.07;1.97;;;6.70;99.90;;;;;;5073314;28;20237;-91
2022/12/30 08:10:55;;;;;;;9.23;1.83;;;6.60;99.90;;;;;;5073068;28;20248;-89
2022/12/30 08:13:22;;;;;;;6.43;2.33;;;6.50;99.90;;;;;;5054908;28;20258;-90
2022/12/30 08:15:49;;;;;;;10.93;1.87;;;6.50;99.90;;;;;;5061668;28;20209;-89
2022/12/30 08:18:16;;;;;;;10.20;3.43;;;6.60;99.90;;;;;;5072562;28;20210;-90
2022/12/30 08:20:43;;;;;;;11.13;2.80;;;6.30;99.90;;;;;;5072204;28;20455;-90
2022/12/30 08:23:11;;;;;;;7.57;1.70;;;6.40;99.90;;;;;;5073763;28;20241;-90
2022/12/30 08:25:38;;;;;;;5.53;1.70;;;6.40;99.90;;;;;;5073194;28;20209;-89
2022/12/30 08:28:05;;;;;;;5.43;1.50;;;6.60;99.90;;;;;;5071835;28;20222;-88
2022/12/30 08:30:32;;;;;;;7.00;2.07;;;6.70;99.90;;;;;;5074911;28;20236;-91
2022/12/30 08:32:58;;;;;;;5.80;1.50;;;7.00;99.90;;;;;;5074038;28;20210;-89
2022/12/30 08:35:25;;;;;;;5.60;1.70;;;7.10;99.90;;;;;;5078758;28;20194;-85
2022/12/30 08:37:52;;;;;;;4.83;1.30;;;7.10;99.90;;;;;;5074880;28;20202;-87
2022/12/30 08:40:20;;;;;;;12.13;1.97;;;7.10;99.90;;;;;;5074083;28;20218;-86
2022/12/30 08:42:47;;;;;;;9.27;1.97;;;7.20;99.90;;;;;;5073978;28;20206;-87
2022/12/30 08:45:14;;;;;;;9.07;2.00;;;7.10;99.90;;;;;;5073344;28;20198;-87
2022/12/30 08:47:40;;;;;;;6.03;1.13;;;7.10;99.90;;;;;;5073117;28;20202;-88
2022/12/30 08:50:08;;;;;;;13.37;2.40;;;7.10;99.90;;;;;;5072684;28;20230;-88
2022/12/30 08:52:36;;;;;;;6.63;1.80;;;7.00;99.90;;;;;;5072854;28;20202;-88
2022/12/30 08:55:03;;;;;;;4.47;1.37;;;7.20;99.90;;;;;;5072804;28;20214;-88
2022/12/30 08:57:31;;;;;;;8.10;2.03;;;7.30;99.90;;;;;;5077220;28;20213;-87
2022/12/30 08:59:58;;;;;;;11.20;1.90;;;7.50;99.90;;;;;;5078900;28;20297;-89
2022/12/30 09:02:24;;;;;;;10.63;3.00;;;7.60;99.90;;;;;;5080070;28;20210;-89
2022/12/30 09:04:51;;;;;;;8.47;2.10;;;7.60;99.90;;;;;;5079933;28;20205;-89
2022/12/30 09:07:18;;;;;;;10.03;2.30;;;7.50;99.90;;;;;;5079730;28;20202;-89
2022/12/30 09:09:45;;;;;;;5.40;1.50;;;7.50;99.90;;;;;;5076007;28;20234;-90
2022/12/30 09:12:12;;;;;;;5.73;1.73;;;7.50;99.90;;;;;;5076700;28;20191;-90
2022/12/30 09:14:40;;;;;;;8.90;1.63;;;7.60;99.90;;;;;;5086953;28;20209;-90
2022/12/30 09:17:06;;;;;;;9.77;1.90;;;7.50;99.90;;;;;;5080281;28;20271;-89
2022/12/30 09:19:34;;;;;;;7.27;1.77;;;7.40;99.90;;;;;;5072753;28;20218;-89
2022/12/30 09:22:00;;;;;;;8.23;2.60;;;7.50;99.90;;;;;;5074481;28;20616;-91
2022/12/30 09:24:27;;;;;;;7.57;1.77;;;7.70;99.90;;;;;;5080923;28;20208;-90
2022/12/30 09:26:54;;;;;;;7.33;1.90;;;7.80;99.90;;;;;;5083497;28;20210;-89
2022/12/30 09:29:21;;;;;;;4.90;1.53;;;7.60;99.90;;;;;;5080667;28;20554;-90
2022/12/30 09:31:49;;;;;;;6.70;1.93;;;7.70;99.90;;;;;;5075380;28;20302;-90
2022/12/30 09:34:16;;;;;;;8.97;1.80;;;7.90;99.90;;;;;;5080623;28;20202;-88
2022/12/30 09:36:43;;;;;;;6.40;1.70;;;7.80;99.90;;;;;;5076777;28;20687;-90
2022/12/30 09:39:10;;;;;;;8.13;1.63;;;7.90;99.90;;;;;;5075897;28;20195;-90
2022/12/30 09:44:47;;;;;;;4.33;1.47;;;8.10;99.90;;;;;;5083076;28;20205;-89
2022/12/30 09:47:22;;;;;;;5.13;1.80;;;8.00;99.90;;;;;;5071358;28;20213;-89
2022/12/30 09:49:56;;;;;;;7.97;2.03;;;8.00;99.90;;;;;;5081614;28;20229;-89
2022/12/30 09:52:26;;;;;;;7.93;1.80;;;7.90;99.90;;;;;;5088877;28;20201;-89
2022/12/30 09:54:58;;;;;;;7.03;1.70;;;8.00;99.90;;;;;;5090386;28;20246;-90
2022/12/30 09:57:32;;;;;;;6.40;1.77;;;8.00;99.90;;;;;;5089866;28;20205;-89
2022/12/30 10:00:04;;;;;;;9.87;2.40;;;8.10;99.90;;;;;;5088311;28;20225;-90
2022/12/30 10:02:40;;;;;;;11.00;2.73;;;8.20;99.90;;;;;;5080111;28;20228;-89
2022/12/30 10:05:12;;;;;;;7.37;2.03;;;8.20;99.90;;;;;;5071900;28;20218;-89
2022/12/30 10:07:49;;;;;;;6.67;1.90;;;8.20;99.90;;;;;;5073349;28;20214;-90
2022/12/30 10:10:20;;;;;;;7.60;1.87;;;8.20;99.90;;;;;;5076113;28;20223;-89
2022/12/30 10:12:56;;;;;;;8.40;1.90;;;8.20;99.90;;;;;;5075218;28;20203;-89
2022/12/30 10:15:33;;;;;;;10.23;1.70;;;8.20;99.90;;;;;;5074463;28;20202;-89
2022/12/30 10:18:21;;;;;;;9.97;1.60;;;8.30;99.90;;;;;;5083497;28;20568;-90
2022/12/30 10:20:53;;;;;;;5.43;2.23;;;8.40;99.90;;;;;;5077156;28;20236;-90
2022/12/30 10:23:36;;;;;;;7.13;1.97;;;8.40;99.90;;;;;;5075233;28;20206;-90
2022/12/30 10:26:11;;;;;;;8.33;1.60;;;8.50;99.90;;;;;;5067142;28;20199;-90
2022/12/30 10:28:41;;;;;;;5.33;1.40;;;8.60;99.90;;;;;;5077479;28;20205;-90
2022/12/30 10:31:17;;;;;;;5.17;1.53;;;8.70;99.90;;;;;;5076866;28;20223;-90
2022/12/30 10:33:47;;;;;;;5.23;1.60;;;8.70;99.90;;;;;;5077353;28;20213;-89
2022/12/30 10:36:17;;;;;;;2.83;1.30;;;8.60;99.90;;;;;;5076762;28;20206;-90
2022/12/30 10:38:45;;;;;;;6.10;1.50;;;8.70;99.90;;;;;;5073461;28;20217;-89
2022/12/30 10:41:26;;;;;;;5.47;1.47;;;8.70;99.90;;;;;;5072581;28;20607;-90
2022/12/30 10:44:02;;;;;;;6.83;1.47;;;8.70;99.90;;;;;;5073297;28;20206;-90
2022/12/30 10:46:54;;;;;;;5.10;1.60;;;8.70;99.90;;;;;;5081112;28;20214;-90
2022/12/30 10:49:43;;;;;;;5.60;1.53;;;8.70;99.90;;;;;;5073326;28;20195;-90
2022/12/30 10:52:13;;;;;;;8.40;1.30;;;8.70;99.90;;;;;;5073387;28;20202;-90
2022/12/30 10:54:40;;;;;;;5.77;1.20;;;8.60;99.90;;;;;;5072569;28;20206;-90
2022/12/30 10:57:13;;;;;;;6.03;1.60;;;8.70;99.90;;;;;;5077065;28;20216;-90
2022/12/30 10:59:41;;;;;;;6.50;1.73;;;8.70;99.90;;;;;;5079829;28;20232;-91
2022/12/30 11:02:17;;;;;;;5.47;1.50;;;8.70;99.90;;;;;;5081273;28;20233;-92
2022/12/30 11:04:45;;;;;;;5.50;1.23;;;8.70;99.90;;;;;;5075177;28;20206;-90
2022/12/30 11:07:14;;;;;;;5.10;1.83;;;8.80;99.90;;;;;;5083231;28;20212;-90
2022/12/30 11:09:42;;;;;;;7.37;1.63;;;8.80;99.90;;;;;;5076685;28;20234;-90
2022/12/30 11:15:10;;;;;;;5.83;1.40;;;8.80;99.90;;;;;;5078485;28;20263;-88
2022/12/30 11:17:42;;;;;;;6.90;1.73;;;8.90;99.90;;;;;;5076112;28;20206;-88
2022/12/30 11:20:28;;;;;;;4.17;1.40;;;8.70;99.90;;;;;;5079659;28;20218;-88
2022/12/30 11:22:57;;;;;;;7.27;1.47;;;8.90;99.90;;;;;;5077846;28;20313;-88
2022/12/30 11:25:27;;;;;;;4.27;1.37;;;8.90;99.90;;;;;;5069758;28;20202;-89
2022/12/30 11:27:56;;;;;;;5.63;1.27;;;8.90;99.90;;;;;;5058625;28;20640;-89
2022/12/30 11:30:26;;;;;;;3.60;1.77;;;8.90;99.90;;;;;;5089810;28;20230;-89
2022/12/30 11:32:54;;;;;;;5.70;1.70;;;9.00;99.90;;;;;;5090232;28;20189;-88
2022/12/30 11:35:40;;;;;;;5.77;1.80;;;9.00;99.90;;;;;;5096530;28;20258;-89
2022/12/30 11:38:28;;;;;;;6.87;1.90;;;9.10;99.90;;;;;;5089699;28;20254;-88
2022/12/30 11:40:55;;;;;;;4.20;1.60;;;9.20;99.90;;;;;;5092173;28;20226;-89
2022/12/30 11:43:23;;;;;;;3.77;1.67;;;9.30;99.90;;;;;;5088422;28;20284;-88
2022/12/30 11:46:01;;;;;;;6.23;1.50;;;9.30;99.90;;;;;;5091658;28;20207;-89
2022/12/30 11:48:33;;;;;;;6.97;1.90;;;9.30;99.90;;;;;;5088868;28;20216;-89
2022/12/30 11:51:04;;;;;;;5.47;2.10;;;9.30;99.90;;;;;;5078646;28;20222;-87
2022/12/30 11:53:35;;;;;;;7.60;1.80;;;9.40;99.90;;;;;;5079689;28;20265;-88
2022/12/30 11:56:02;;;;;;;4.60;1.80;;;9.50;99.90;;;;;;5082882;28;20186;-88
2022/12/30 11:58:34;;;;;;;6.50;2.00;;;9.40;99.90;;;;;;5081862;28;20216;-87
2022/12/30 12:01:05;;;;;;;6.90;1.63;;;9.50;99.90;;;;;;5061717;28;20241;-89
2022/12/30 12:03:32;;;;;;;6.67;2.17;;;9.50;99.90;;;;;;5066833;28;20214;-88
2022/12/30 12:06:09;;;;;;;4.33;1.20;;;9.50;99.90;;;;;;5074659;28;20734;-87
2022/12/30 12:08:44;;;;;;;6.67;1.70;;;9.50;99.90;;;;;;5071706;28;20572;-88
2022/12/30 12:11:16;;;;;;;7.60;2.30;;;9.50;99.90;;;;;;5076519;28;20213;-88
2022/12/30 12:13:52;;;;;;;5.60;1.70;;;9.50;99.90;;;;;;5075915;28;20217;-88
2022/12/30 12:16:27;;;;;;;5.17;1.97;;;9.50;99.90;;;;;;5078314;28;20197;-88
2022/12/30 12:19:01;;;;;;;4.70;1.50;;;9.50;99.90;;;;;;5075663;28;20217;-88
2022/12/30 12:21:30;;;;;;;4.37;1.60;;;9.50;99.90;;;;;;5074736;28;20230;-88
2022/12/30 12:24:04;;;;;;;4.73;1.40;;;9.50;99.90;;;;;;5074786;28;20253;-88
2022/12/30 12:26:36;;;;;;;4.00;1.20;;;9.50;99.90;;;;;;5073062;28;20206;-88
2022/12/30 12:29:04;;;;;;;5.53;1.90;;;9.50;99.90;;;;;;5069197;28;20639;-87
2022/12/30 12:31:53;;;;;;;4.77;2.00;;;9.50;99.90;;;;;;5069577;28;20237;-88
2022/12/30 12:34:35;;;;;;;5.27;1.67;;;9.50;99.90;;;;;;5072804;28;20690;-90
2022/12/30 12:37:16;;;;;;;2.10;1.30;;;9.40;99.90;;;;;;5069849;28;20202;-89
2022/12/30 12:39:57;;;;;;;6.83;1.37;;;9.50;99.90;;;;;;5071302;28;20222;-90
2022/12/30 12:42:30;;;;;;;3.97;1.73;;;9.50;99.90;;;;;;5076522;28;20217;-90
2022/12/30 12:45:18;;;;;;;2.30;0.90;;;9.40;99.90;;;;;;5077520;28;20233;-90
2022/12/30 12:48:12;;;;;;;4.43;1.60;;;9.60;99.90;;;;;;5070541;28;20199;-89
2022/12/30 12:50:57;;;;;;;6.03;1.50;;;9.50;99.90;;;;;;5058560;28;20230;-90
2022/12/30 12:53:39;;;;;;;4.93;1.37;;;9.50;99.90;;;;;;5067657;28;20202;-89
2022/12/30 12:56:24;;;;;;;6.10;1.67;;;9.50;99.90;;;;;;5070172;28;20281;-89
2022/12/30 12:59:04;;;;;;;6.53;1.90;;;9.50;99.90;;;;;;5071668;28;20213;-88
2022/12/30 13:01:38;;;;;;;7.37;1.90;;;9.50;99.90;;;;;;5066548;28;20241;-87
2022/12/30 13:04:19;;;;;;;6.60;1.70;;;9.50;99.90;;;;;;5071915;28;20196;-88
2022/12/30 13:07:02;;;;;;;6.00;1.53;;;9.40;99.90;;;;;;5070253;28;20298;-88
2022/12/30 13:10:13;;;;;;;2.70;1.37;;;9.40;99.90;;;;;;5066561;28;20207;-87
2022/12/30 13:12:50;;;;;;;7.00;1.33;;;9.50;99.90;;;;;;5057774;28;20204;-87
2022/12/30 13:15:23;;;;;;;6.63;1.43;;;9.50;99.90;;;;;;5067206;28;20213;-88
2022/12/30 13:17:53;;;;;;;3.03;1.10;;;9.50;99.90;;;;;;5067359;28;20210;-88
2022/12/30 13:20:22;;;;;;;3.53;1.20;;;9.50;99.90;;;;;;5071661;28;20221;-88
2022/12/30 13:22:50;;;;;;;7.17;1.97;;;9.50;99.90;;;;;;5068690;28;20233;-88
2022/12/30 13:25:21;;;;;;;7.27;2.20;;;9.60;99.90;;;;;;5075266;28;20195;-88
2022/12/30 13:27:53;;;;;;;5.50;1.53;;;9.60;99.90;;;;;;5074468;28;20208;-88
2022/12/30 13:30:22;;;;;;;7.37;1.30;;;9.60;99.90;;;;;;5071194;28;20225;-89
2022/12/30 13:32:56;;;;;;;4.17;1.73;;;9.60;99.90;;;;;;5071337;28;20727;-89
2022/12/30 13:35:36;;;;;;;3.53;1.20;;;9.60;99.90;;;;;;5072668;28;20337;-88
2022/12/30 13:38:13;;;;;;;4.03;1.40;;;9.60;99.90;;;;;;5066726;28;20206;-88
2022/12/30 13:40:52;;;;;;;5.70;1.47;;;9.60;99.90;;;;;;5075401;28;20233;-88
2022/12/30 13:43:32;;;;;;;5.17;2.60;;;9.60;99.90;;;;;;5075747;28;20233;-88
2022/12/30 13:46:01;;;;;;;2.33;1.17;;;9.60;99.90;;;;;;5074138;28;20198;-88
2022/12/30 13:48:33;;;;;;;4.63;1.30;;;9.60;99.90;;;;;;5078914;28;20292;-89
2022/12/30 13:51:03;;;;;;;3.07;1.10;;;9.40;99.90;;;;;;5074867;28;20218;-88
2022/12/30 13:53:36;;;;;;;4.30;1.50;;;9.40;99.90;;;;;;5082474;28;20202;-88
2022/12/30 13:56:04;;;;;;;4.60;1.30;;;9.40;99.90;;;;;;5077162;28;20201;-89
2022/12/30 13:58:34;;;;;;;3.60;1.17;;;9.50;99.90;;;;;;5077020;28;20206;-89
2022/12/30 14:01:25;;;;;;;3.57;1.50;;;9.50;99.90;;;;;;5082305;28;20233;-89
2022/12/30 14:04:12;;;;;;;3.73;0.90;;;9.60;99.90;;;;;;5081068;28;20199;-89
2022/12/30 14:06:45;;;;;;;7.70;1.37;;;9.50;99.90;;;;;;5090144;28;20188;-88
2022/12/30 14:09:18;;;;;;;10.10;2.07;;;9.60;99.90;;;;;;5093724;28;20202;-89
2022/12/30 14:12:21;;;;;;;2.80;1.13;;;9.40;99.90;;;;;;5083161;28;20195;-89
2022/12/30 14:14:48;;;;;;;5.60;1.17;;;9.40;99.90;;;;;;5089889;28;20269;-89
2022/12/30 14:17:19;;;;;;;2.83;1.20;;;9.40;99.90;;;;;;5090503;28;20186;-88